Terminal Aerodrome Forecast
Issued by NWS

Home | Current Version | Previous Version | Text Only | Print | Product List | Glossary On
Versions: 1 2 3 4 5 6 7 8 9 10 11 12 13 14 15 16 17 18 19 20 21 22 23 24 25 26 27 28 29 30 31 32 33 34 35 36 37 38 39
000
FTAK31 PANC 242342
TAFACD
TAF
PACD 242342Z 2500/2524 16020KT P6SM -RA SCT025 BKN040
      TEMPO 2500/2503 16020G30KT BKN025
     FM250300 19015KT P6SM -SHRA BKN035
     FM251200 23010KT P6SM -SHRA BKN040=

USA.gov is the U.S. government's official web portal to all federal, state and local government web resources and services.